Time;durP1;ratioP1;P1;durP2;ratioP2;P2;SDS_P1;SDS_P2;PMS_P1;PMS_P2;Temp;Humidity;BMP_temperature;BMP_pressure;BME280_temperature;BME280_humidity;BME280_pressure;Samples;Min_cycle;Max_cycle;Signal;HPM_P1;HPM_P2
2023/09/15 00:01:44;;;;;;;;;;;12.90;99.90;;;;;;5043064;28;20229;-76
2023/09/15 00:04:12;;;;;;;;;;;12.90;99.90;;;;;;5042632;28;19921;-75
2023/09/15 00:06:39;;;;;;;;;;;12.80;99.90;;;;;;5043532;28;20294;-75
2023/09/15 00:09:06;;;;;;;;;;;12.80;99.90;;;;;;5048050;28;19963;-75
2023/09/15 00:11:40;;;;;;;;;;;12.70;99.90;;;;;;5038350;28;19964;-75
2023/09/15 00:14:07;;;;;;;;;;;12.70;99.90;;;;;;5042926;28;19921;-75
2023/09/15 00:16:34;;;;;;;;;;;12.70;99.90;;;;;;5042956;28;19992;-74
2023/09/15 00:19:00;;;;;;;;;;;12.60;99.90;;;;;;5044984;28;19980;-74
2023/09/15 00:21:28;;;;;;;;;;;12.60;99.90;;;;;;5047293;28;19951;-74
2023/09/15 00:23:55;;;;;;;;;;;12.60;99.90;;;;;;5046713;28;20234;-74
2023/09/15 00:26:23;;;;;;;;;;;12.50;99.90;;;;;;5046878;28;19978;-75
2023/09/15 00:28:50;;;;;;;;;;;12.50;99.90;;;;;;5056844;28;19952;-74
2023/09/15 00:31:16;;;;;;;;;;;12.50;99.90;;;;;;5047093;28;19921;-75
2023/09/15 00:33:43;;;;;;;;;;;12.50;99.90;;;;;;5047087;28;20210;-75
2023/09/15 00:36:10;;;;;;;;;;;12.40;99.90;;;;;;5046554;28;19957;-75
2023/09/15 00:38:38;;;;;;;;;;;12.40;99.90;;;;;;5047022;28;20117;-75
2023/09/15 00:41:05;;;;;;;;;;;12.40;99.90;;;;;;5046687;28;19976;-74
2023/09/15 00:43:31;;;;;;;;;;;12.40;99.90;;;;;;5042022;28;20159;-74
2023/09/15 00:45:58;;;;;;;;;;;12.30;99.90;;;;;;5046231;28;19956;-74
2023/09/15 00:48:25;;;;;;;;;;;12.30;99.90;;;;;;5046679;28;19984;-74
2023/09/15 00:50:52;;;;;;;;;;;12.20;99.90;;;;;;5048117;28;19929;-74
2023/09/15 00:53:21;;;;;;;;;;;12.20;99.90;;;;;;5046839;28;19989;-74
2023/09/15 00:55:51;;;;;;;;;;;12.20;99.90;;;;;;5045922;28;20265;-74
2023/09/15 00:58:19;;;;;;;;;;;12.10;99.90;;;;;;5047986;28;19921;-74
2023/09/15 01:00:46;;;;;;;;;;;12.10;99.90;;;;;;5059738;28;19920;-74
2023/09/15 01:03:14;;;;;;;;;;;12.10;99.90;;;;;;5056105;28;19956;-73
2023/09/15 01:05:41;;;;;;;;;;;12.10;99.90;;;;;;5045714;28;19957;-74
2023/09/15 01:08:08;;;;;;;;;;;12.00;99.90;;;;;;5046947;28;19921;-75
2023/09/15 01:10:35;;;;;;;;;;;12.00;99.90;;;;;;5046034;28;20163;-74
2023/09/15 01:13:03;;;;;;;;;;;12.00;99.90;;;;;;5046393;28;19927;-74
2023/09/15 01:15:33;;;;;;;;;;;12.00;99.90;;;;;;5045419;28;19927;-74
2023/09/15 01:18:03;;;;;;;;;;;12.00;99.90;;;;;;5045721;28;19996;-74
2023/09/15 01:20:38;;;;;;;;;;;12.00;99.90;;;;;;5046158;28;19925;-74
2023/09/15 01:23:16;;;;;;;;;;;12.00;99.90;;;;;;5046206;28;19955;-75
2023/09/15 01:26:02;;;;;;;;;;;11.90;99.90;;;;;;5045545;28;20012;-75
2023/09/15 01:28:42;;;;;;;;;;;11.90;99.90;;;;;;5038335;28;20210;-75
2023/09/15 01:31:11;;;;;;;;;;;11.90;99.90;;;;;;5045010;28;19959;-74
2023/09/15 01:33:38;;;;;;;;;;;11.80;99.90;;;;;;5050383;28;19921;-74
2023/09/15 01:36:05;;;;;;;;;;;11.80;99.90;;;;;;5048695;28;19956;-74
2023/09/15 01:38:33;;;;;;;;;;;11.80;99.90;;;;;;5045345;28;19987;-75
2023/09/15 01:41:00;;;;;;;;;;;11.80;99.90;;;;;;5045478;28;20230;-74
2023/09/15 01:43:27;;;;;;;;;;;11.80;99.90;;;;;;5045791;28;19988;-74
2023/09/15 01:45:53;;;;;;;;;;;11.80;99.90;;;;;;5045199;28;20174;-74
2023/09/15 01:48:21;;;;;;;;;;;11.70;99.90;;;;;;5047437;28;19927;-74
2023/09/15 01:50:49;;;;;;;;;;;11.60;99.90;;;;;;5048100;28;19928;-74
2023/09/15 01:53:15;;;;;;;;;;;11.60;99.90;;;;;;5050589;28;19979;-73
2023/09/15 01:55:42;;;;;;;;;;;11.60;99.90;;;;;;5045011;28;19921;-74
2023/09/15 01:58:09;;;;;;;;;;;11.50;99.90;;;;;;5046307;28;19996;-74
2023/09/15 02:00:36;;;;;;;;;;;11.50;99.90;;;;;;5049480;28;19953;-74
2023/09/15 02:03:03;;;;;;;;;;;11.50;99.90;;;;;;5045373;28;20020;-74
2023/09/15 02:05:31;;;;;;;;;;;11.50;99.90;;;;;;5044694;28;19952;-74
2023/09/15 02:07:57;;;;;;;;;;;11.50;99.90;;;;;;5044987;28;20294;-73
2023/09/15 02:10:24;;;;;;;;;;;11.50;99.90;;;;;;5044864;28;20264;-74
2023/09/15 02:12:51;;;;;;;;;;;11.50;99.90;;;;;;5047603;28;20167;-74
2023/09/15 02:15:18;;;;;;;;;;;11.50;99.90;;;;;;5044830;28;19928;-74
2023/09/15 02:17:44;;;;;;;;;;;11.40;99.90;;;;;;5044920;28;20211;-73
2023/09/15 02:20:12;;;;;;;;;;;11.40;99.90;;;;;;5049900;28;19980;-73
2023/09/15 02:22:40;;;;;;;;;;;11.40;99.90;;;;;;5044877;28;19921;-74
2023/09/15 02:25:09;;;;;;;;;;;11.40;99.90;;;;;;5044193;28;19968;-74
2023/09/15 02:27:35;;;;;;;;;;;11.40;99.90;;;;;;5042367;28;19943;-74
2023/09/15 02:30:02;;;;;;;;;;;11.40;99.90;;;;;;5050125;28;19984;-74
2023/09/15 02:32:29;;;;;;;;;;;11.40;99.90;;;;;;5045437;28;19928;-74
2023/09/15 02:34:55;;;;;;;;;;;11.40;99.90;;;;;;5044213;28;20218;-74
2023/09/15 02:37:22;;;;;;;;;;;11.40;99.90;;;;;;5044720;28;19964;-74
2023/09/15 02:39:50;;;;;;;;;;;11.30;99.90;;;;;;5045518;28;20334;-74
2023/09/15 02:42:17;;;;;;;;;;;11.30;99.90;;;;;;5050129;28;19984;-74
2023/09/15 02:44:43;;;;;;;;;;;11.20;99.90;;;;;;5044120;28;19989;-74
2023/09/15 02:47:10;;;;;;;;;;;11.20;99.90;;;;;;5044345;28;19959;-74
2023/09/15 02:49:36;;;;;;;;;;;11.10;99.90;;;;;;5049111;28;19927;-74
2023/09/15 02:52:05;;;;;;;;;;;11.10;99.90;;;;;;5044533;28;19929;-74
2023/09/15 02:54:31;;;;;;;;;;;11.10;99.90;;;;;;5043916;28;19960;-74
2023/09/15 02:56:59;;;;;;;;;;;11.10;99.90;;;;;;5048782;28;20211;-74
2023/09/15 02:59:26;;;;;;;;;;;11.10;99.90;;;;;;5044310;28;19929;-74
2023/09/15 03:01:53;;;;;;;;;;;11.10;99.90;;;;;;5044110;28;19956;-74
2023/09/15 03:04:20;;;;;;;;;;;11.10;99.90;;;;;;5043368;28;19975;-74
2023/09/15 03:06:48;;;;;;;;;;;11.10;99.90;;;;;;5044703;28;19956;-74
2023/09/15 03:09:14;;;;;;;;;;;11.10;99.90;;;;;;5046838;28;19993;-74
2023/09/15 03:11:41;;;;;;;;;;;11.10;99.90;;;;;;5043891;28;19928;-74
2023/09/15 03:14:09;;;;;;;;;;;11.10;99.90;;;;;;5043285;28;19987;-74
2023/09/15 03:16:36;;;;;;;;;;;11.10;99.90;;;;;;5043950;28;19921;-74
2023/09/15 03:19:05;;;;;;;;;;;11.10;99.90;;;;;;5048863;28;20186;-75
2023/09/15 03:21:33;;;;;;;;;;;11.00;99.90;;;;;;5044008;28;19921;-74
2023/09/15 03:24:01;;;;;;;;;;;11.00;99.90;;;;;;5040939;28;19921;-74
2023/09/15 03:26:28;;;;;;;;;;;10.90;99.90;;;;;;5042165;28;20182;-74
2023/09/15 03:28:54;;;;;;;;;;;10.80;99.90;;;;;;5043588;28;19921;-74
2023/09/15 03:31:22;;;;;;;;;;;10.80;99.90;;;;;;5043834;28;19925;-74
2023/09/15 03:33:49;;;;;;;;;;;10.80;99.90;;;;;;5043635;28;19921;-75
2023/09/15 03:36:16;;;;;;;;;;;10.80;99.90;;;;;;5043170;28;19921;-74
2023/09/15 03:38:43;;;;;;;;;;;10.70;99.90;;;;;;5048548;28;19943;-75
2023/09/15 03:41:09;;;;;;;;;;;10.70;99.90;;;;;;5043565;28;20206;-74
2023/09/15 03:43:36;;;;;;;;;;;10.70;99.90;;;;;;5043541;28;19988;-74
2023/09/15 03:46:03;;;;;;;;;;;10.70;99.90;;;;;;5042909;28;19935;-74
2023/09/15 03:48:31;;;;;;;;;;;10.70;99.90;;;;;;5043723;28;19927;-75
2023/09/15 03:50:58;;;;;;;;;;;10.70;99.90;;;;;;5053389;28;20165;-74
2023/09/15 03:53:25;;;;;;;;;;;10.70;99.90;;;;;;5043148;28;19996;-74
2023/09/15 03:55:52;;;;;;;;;;;10.70;99.90;;;;;;5043375;28;19984;-75
2023/09/15 03:58:18;;;;;;;;;;;10.70;99.90;;;;;;5043992;28;19981;-74
2023/09/15 04:00:45;;;;;;;;;;;10.60;99.90;;;;;;5044868;28;20122;-74
2023/09/15 04:03:12;;;;;;;;;;;10.60;99.90;;;;;;5043545;28;19927;-75
2023/09/15 04:05:40;;;;;;;;;;;10.60;99.90;;;;;;5043025;28;19960;-74
2023/09/15 04:08:06;;;;;;;;;;;10.50;99.90;;;;;;5043320;28;19966;-74
2023/09/15 04:10:33;;;;;;;;;;;10.50;99.90;;;;;;5038392;28;19927;-74
2023/09/15 04:12:59;;;;;;;;;;;10.50;99.90;;;;;;5043443;28;19992;-73
2023/09/15 04:15:26;;;;;;;;;;;10.50;99.90;;;;;;5042597;28;20218;-74
2023/09/15 04:17:55;;;;;;;;;;;10.50;99.90;;;;;;5042977;28;19921;-74
2023/09/15 04:20:21;;;;;;;;;;;10.50;99.90;;;;;;5042979;28;20238;-74
2023/09/15 04:22:49;;;;;;;;;;;10.50;99.90;;;;;;5043344;28;19983;-74
2023/09/15 04:25:16;;;;;;;;;;;10.40;99.90;;;;;;5042389;28;19985;-74
2023/09/15 04:27:43;;;;;;;;;;;10.40;99.90;;;;;;5040066;28;20148;-75
2023/09/15 04:30:10;;;;;;;;;;;10.40;99.90;;;;;;5043488;28;19921;-74
2023/09/15 04:32:37;;;;;;;;;;;10.40;99.90;;;;;;5043287;28;19952;-74
2023/09/15 04:35:05;;;;;;;;;;;10.40;99.90;;;;;;5042486;28;20178;-75
2023/09/15 04:37:32;;;;;;;;;;;10.40;99.90;;;;;;5038378;28;19921;-74
2023/09/15 04:40:01;;;;;;;;;;;10.40;99.90;;;;;;5042718;28;19991;-74
2023/09/15 04:42:27;;;;;;;;;;;10.30;99.90;;;;;;5044037;28;19971;-75
2023/09/15 04:44:54;;;;;;;;;;;10.30;99.90;;;;;;5042469;28;20122;-73
2023/09/15 04:47:29;;;;;;;;;;;10.30;99.90;;;;;;5042976;28;19984;-75
2023/09/15 04:49:56;;;;;;;;;;;10.30;99.90;;;;;;5042493;28;19967;-74
2023/09/15 04:52:23;;;;;;;;;;;10.20;99.90;;;;;;5042912;28;19928;-76
2023/09/15 04:54:49;;;;;;;;;;;10.20;99.90;;;;;;5044677;28;20106;-74
2023/09/15 04:57:18;;;;;;;;;;;10.20;99.90;;;;;;5042984;28;19952;-75
2023/09/15 04:59:46;;;;;;;;;;;10.20;99.90;;;;;;5042675;28;19960;-74
2023/09/15 05:02:13;;;;;;;;;;;10.20;99.90;;;;;;5042998;28;19939;-77
2023/09/15 05:04:39;;;;;;;;;;;10.20;99.90;;;;;;5042434;28;19928;-75
2023/09/15 05:07:06;;;;;;;;;;;10.10;99.90;;;;;;5045709;28;20245;-75
2023/09/15 05:09:33;;;;;;;;;;;10.20;99.90;;;;;;5050055;28;20257;-75
2023/09/15 05:12:00;;;;;;;;;;;10.20;99.90;;;;;;5046936;28;19956;-75
2023/09/15 05:14:28;;;;;;;;;;;10.20;99.90;;;;;;5052270;28;19964;-75
2023/09/15 05:16:55;;;;;;;;;;;10.10;99.90;;;;;;5053070;28;19980;-74
2023/09/15 05:19:22;;;;;;;;;;;10.20;99.90;;;;;;5051019;28;19943;-75
2023/09/15 05:21:48;;;;;;;;;;;10.10;99.90;;;;;;5045933;28;19922;-73
2023/09/15 05:24:15;;;;;;;;;;;10.10;99.90;;;;;;5043231;28;20189;-74
2023/09/15 05:26:42;;;;;;;;;;;10.10;99.90;;;;;;5046011;28;19980;-74
2023/09/15 05:29:08;;;;;;;;;;;10.10;99.90;;;;;;5047710;28;19979;-74
2023/09/15 05:31:36;;;;;;;;;;;10.10;99.90;;;;;;5050556;28;19921;-73
2023/09/15 05:34:03;;;;;;;;;;;10.10;99.90;;;;;;5045328;28;19960;-70
2023/09/15 05:36:29;;;;;;;;;;;10.10;99.90;;;;;;5053122;28;19951;-74
2023/09/15 05:38:56;;;;;;;;;;;10.20;99.90;;;;;;5046658;28;19921;-74
2023/09/15 05:41:23;;;;;;;;;;;10.20;99.90;;;;;;5045775;28;20001;-74
2023/09/15 05:43:49;;;;;;;;;;;10.20;99.90;;;;;;5045428;28;19921;-74
2023/09/15 05:46:16;;;;;;;;;;;10.30;99.90;;;;;;5045304;28;19927;-74
2023/09/15 05:48:44;;;;;;;;;;;10.30;99.90;;;;;;5046827;28;19983;-74
2023/09/15 05:51:10;;;;;;;;;;;10.30;99.90;;;;;;5047892;28;20210;-74
2023/09/15 05:53:37;;;;;;;;;;;10.40;99.90;;;;;;5045533;28;19967;-74
2023/09/15 05:56:04;;;;;;;;;;;10.40;99.90;;;;;;5046607;28;19921;-74
2023/09/15 05:58:30;;;;;;;;;;;10.40;99.90;;;;;;5045575;28;19936;-74
2023/09/15 06:00:57;;;;;;;;;;;10.40;99.90;;;;;;5045370;28;20169;-74
2023/09/15 06:03:24;;;;;;;;;;;10.50;99.90;;;;;;5043926;28;19995;-76
2023/09/15 06:05:53;;;;;;;;;;;10.50;99.90;;;;;;5044617;28;19921;-75
2023/09/15 06:08:20;;;;;;;;;;;10.50;99.90;;;;;;5045141;28;19927;-76
2023/09/15 06:10:47;;;;;;;;;;;10.60;99.90;;;;;;5043052;28;19935;-76
2023/09/15 06:13:14;;;;;;;;;;;10.60;99.90;;;;;;5044224;28;20088;-77
2023/09/15 06:15:40;;;;;;;;;;;10.70;99.90;;;;;;5042715;28;19936;-76
2023/09/15 06:18:07;;;;;;;;;;;10.60;99.90;;;;;;5039911;28;19969;-74
2023/09/15 06:20:34;;;;;;;;;;;10.70;99.90;;;;;;5043217;28;20173;-76
2023/09/15 06:23:02;;;;;;;;;;;10.80;99.90;;;;;;5043234;28;19963;-76
2023/09/15 06:25:30;;;;;;;;;;;10.90;99.90;;;;;;5040609;28;19944;-75
2023/09/15 06:27:56;;;;;;;;;;;10.90;99.90;;;;;;5046456;28;20297;-76
2023/09/15 06:30:23;;;;;;;;;;;11.00;99.90;;;;;;5045684;28;19921;-76
2023/09/15 06:32:50;;;;;;;;;;;11.00;99.90;;;;;;5043371;28;20125;-76
2023/09/15 06:35:17;;;;;;;;;;;11.10;99.90;;;;;;5045577;28;19921;-76
2023/09/15 06:37:44;;;;;;;;;;;11.20;99.90;;;;;;5044521;28;19927;-75
2023/09/15 06:40:12;;;;;;;;;;;11.30;99.90;;;;;;5047562;28;19987;-74
2023/09/15 06:42:39;;;;;;;;;;;11.40;99.90;;;;;;5040906;28;19984;-75
2023/09/15 06:45:06;;;;;;;;;;;11.50;99.90;;;;;;5045276;28;19925;-73
2023/09/15 06:47:33;;;;;;;;;;;11.60;99.90;;;;;;5040616;28;20091;-72
2023/09/15 06:50:00;;;;;;;;;;;11.70;99.90;;;;;;5045775;28;19957;-72
2023/09/15 06:52:27;;;;;;;;;;;11.80;99.90;;;;;;5044052;28;20179;-73
2023/09/15 06:54:53;;;;;;;;;;;12.00;99.90;;;;;;5042555;28;19964;-73
2023/09/15 06:57:21;;;;;;;;;;;12.10;99.90;;;;;;5043981;28;19921;-73
2023/09/15 06:59:50;;;;;;;;;;;12.20;99.90;;;;;;5044083;28;20241;-73
2023/09/15 07:02:17;;;;;;;;;;;12.30;99.90;;;;;;5119671;22;19909;-94
2023/09/15 07:04:43;;;;;;;;;;;12.30;99.90;;;;;;5093423;28;19924;-95
2023/09/15 07:07:10;;;;;;;;;;;12.50;99.90;;;;;;5083518;28;19912;-94
2023/09/15 07:09:37;;;;;;;;;;;12.60;99.90;;;;;;5091275;28;19920;-93
2023/09/15 07:12:05;;;;;;;;;;;12.80;99.90;;;;;;5087131;28;19927;-93
2023/09/15 07:14:33;;;;;;;;;;;12.90;99.90;;;;;;5091078;28;19909;-93
2023/09/15 07:16:59;;;;;;;;;;;13.00;99.90;;;;;;5088209;28;19909;-93
2023/09/15 07:19:26;;;;;;;;;;;13.10;99.90;;;;;;5088426;28;19920;-94
2023/09/15 07:21:53;;;;;;;;;;;13.20;99.90;;;;;;5088085;28;19935;-94
2023/09/15 07:24:20;;;;;;;;;;;13.30;99.90;;;;;;5085052;28;19921;-93
2023/09/15 07:26:47;;;;;;;;;;;13.30;99.90;;;;;;5090286;28;19951;-96
2023/09/15 07:29:14;;;;;;;;;;;13.50;99.90;;;;;;5087216;28;19962;-93
2023/09/15 07:31:42;;;;;;;;;;;13.50;99.90;;;;;;5088096;28;19912;-91
2023/09/15 07:34:09;;;;;;;;;;;13.60;99.90;;;;;;5068533;28;19908;-94
2023/09/15 07:36:36;;;;;;;;;;;13.60;99.90;;;;;;5085935;28;19943;-94
2023/09/15 07:39:05;;;;;;;;;;;13.60;99.90;;;;;;5088260;28;19913;-93
2023/09/15 07:41:38;;;;;;;;;;;13.70;99.90;;;;;;5089965;28;19972;-95
2023/09/15 07:44:08;;;;;;;;;;;13.80;99.90;;;;;;5088165;28;19936;-95
2023/09/15 07:46:36;;;;;;;;;;;13.80;99.90;;;;;;5066390;28;19928;-93
2023/09/15 07:49:04;;;;;;;;;;;13.90;99.90;;;;;;5074617;28;19931;-92
2023/09/15 07:51:31;;;;;;;;;;;14.00;99.90;;;;;;5066719;28;20094;-93
2023/09/15 07:53:57;;;;;;;;;;;14.10;99.90;;;;;;5070619;28;20268;-92
2023/09/15 07:56:25;;;;;;;;;;;14.20;99.90;;;;;;5072814;28;19939;-95
2023/09/15 07:58:51;;;;;;;;;;;14.30;99.90;;;;;;5099404;22;19951;-73
2023/09/15 08:01:18;;;;;;;;;;;14.30;99.90;;;;;;5083385;28;19947;-74
2023/09/15 08:03:45;;;;;;;;;;;14.40;99.90;;;;;;5093398;28;19921;-75
2023/09/15 08:06:15;;;;;;;;;;;14.60;99.90;;;;;;5082868;28;19920;-71
2023/09/15 08:08:42;;;;;;;;;;;14.70;99.90;;;;;;5083311;28;19962;-74
2023/09/15 08:11:09;;;;;;;;;;;14.90;99.90;;;;;;5083076;28;19920;-75
2023/09/15 08:13:35;;;;;;;;;;;15.00;99.90;;;;;;5082742;28;19999;-75
2023/09/15 08:16:02;;;;;;;;;;;15.10;99.90;;;;;;5081751;28;19920;-75
2023/09/15 08:18:29;;;;;;;;;;;15.10;99.90;;;;;;5082871;28;19987;-74
2023/09/15 08:20:56;;;;;;;;;;;15.20;99.90;;;;;;5086255;28;19974;-75
2023/09/15 08:23:24;;;;;;;;;;;15.30;99.90;;;;;;5083377;28;19920;-75
2023/09/15 08:25:50;;;;;;;;;;;15.40;99.90;;;;;;5082611;28;19991;-75
2023/09/15 08:28:17;;;;;;;;;;;15.50;99.90;;;;;;5083143;28;19943;-75
2023/09/15 08:30:46;;;;;;;;;;;15.60;99.90;;;;;;5082903;28;19920;-75
2023/09/15 08:33:13;;;;;;;;;;;15.70;99.90;;;;;;5081413;28;19991;-75
2023/09/15 08:35:39;;;;;;;;;;;15.80;99.90;;;;;;5084188;28;19947;-75
2023/09/15 08:38:06;;;;;;;;;;;15.90;99.90;;;;;;5083094;28;19928;-75
2023/09/15 08:40:39;;;;;;;;;;;15.90;99.90;;;;;;5080622;28;19920;-75
2023/09/15 08:43:06;;;;;;;;;;;16.00;99.90;;;;;;5087108;28;20168;-75
2023/09/15 08:45:34;;;;;;;;;;;16.00;99.90;;;;;;5081233;28;19920;-75
2023/09/15 08:48:04;;;;;;;;;;;16.20;99.90;;;;;;5087725;28;19920;-75
2023/09/15 08:50:31;;;;;;;;;;;16.30;99.90;;;;;;5091850;28;19995;-75
2023/09/15 08:52:58;;;;;;;;;;;16.40;99.90;;;;;;5086785;28;19921;-75
2023/09/15 08:55:25;;;;;;;;;;;16.50;99.90;;;;;;5085650;28;19991;-74
2023/09/15 08:57:53;;;;;;;;;;;16.60;99.90;;;;;;5086635;28;19948;-75
2023/09/15 09:00:20;;;;;;;;;;;16.70;99.90;;;;;;5084472;28;19921;-75
2023/09/15 09:02:47;;;;;;;;;;;16.80;99.90;;;;;;5084813;28;20256;-75
2023/09/15 09:05:14;;;;;;;;;;;16.90;99.90;;;;;;5085867;28;19984;-75
2023/09/15 09:07:41;;;;;;;;;;;17.00;99.90;;;;;;5086609;28;19959;-75
2023/09/15 09:10:08;;;;;;;;;;;17.10;99.90;;;;;;5085921;28;19955;-74
2023/09/15 09:12:34;;;;;;;;;;;17.20;99.90;;;;;;5086528;28;19952;-75
2023/09/15 09:15:02;;;;;;;;;;;17.30;99.90;;;;;;5085796;28;19983;-76
2023/09/15 09:17:29;;;;;;;;;;;17.30;99.90;;;;;;5086348;28;19983;-76
2023/09/15 09:19:58;;;;;;;;;;;17.40;99.90;;;;;;5086248;28;20195;-74
2023/09/15 09:22:25;;;;;;;;;;;17.50;99.90;;;;;;5093871;28;19983;-74
2023/09/15 09:24:56;;;;;;;;;;;17.60;99.90;;;;;;5092228;28;19929;-72
2023/09/15 09:27:22;;;;;;;;;;;17.70;99.90;;;;;;5089043;28;19973;-74
2023/09/15 09:29:49;;;;;;;;;;;17.80;99.90;;;;;;5084777;28;19955;-74
2023/09/15 09:32:17;;;;;;;;;;;17.90;99.90;;;;;;5088558;28;19928;-74
2023/09/15 09:34:44;;;;;;;;;;;18.00;99.90;;;;;;5085065;28;19927;-74
2023/09/15 09:37:10;;;;;;;;;;;18.10;99.90;;;;;;5085934;28;19979;-73
2023/09/15 09:39:37;;;;;;;;;;;18.20;99.90;;;;;;5085614;28;19920;-74
2023/09/15 09:42:03;;;;;;;;;;;18.40;99.90;;;;;;5085715;28;19938;-74
2023/09/15 09:44:31;;;;;;;;;;;18.40;99.90;;;;;;5086939;28;19984;-74
2023/09/15 09:46:58;;;;;;;;;;;18.50;99.90;;;;;;5085766;28;19927;-74
2023/09/15 09:49:26;;;;;;;;;;;18.60;99.90;;;;;;5085500;28;20125;-74
2023/09/15 09:51:52;;;;;;;;;;;18.70;99.90;;;;;;5084774;28;19979;-74
2023/09/15 09:54:19;;;;;;;;;;;18.80;99.90;;;;;;5085085;28;19963;-74
2023/09/15 09:56:49;;;;;;;;;;;18.90;99.90;;;;;;5090658;28;19920;-75
2023/09/15 09:59:16;;;;;;;;;;;19.10;99.90;;;;;;5085664;28;19928;-73
2023/09/15 10:01:43;;;;;;;;;;;19.30;99.90;;;;;;5085486;28;19955;-75
2023/09/15 10:04:09;;;;;;;;;;;19.30;99.90;;;;;;5081914;28;20091;-75
2023/09/15 10:06:37;;;;;;;;;;;19.40;99.90;;;;;;5082401;28;19927;-74
2023/09/15 10:09:05;;;;;;;;;;;19.60;99.90;;;;;;5085380;28;20118;-75
2023/09/15 10:11:33;;;;;;;;;;;19.60;99.90;;;;;;5078829;28;19962;-75
2023/09/15 10:14:01;;;;;;;;;;;19.70;99.90;;;;;;5076402;28;19956;-74
2023/09/15 10:16:27;;;;;;;;;;;19.80;99.90;;;;;;5084521;28;20282;-74
2023/09/15 10:18:54;;;;;;;;;;;20.00;99.90;;;;;;5085194;28;19927;-74
2023/09/15 10:21:23;;;;;;;;;;;20.10;99.90;;;;;;5083618;28;20149;-74
2023/09/15 10:23:59;;;;;;;;;;;20.10;99.90;;;;;;5081981;28;19979;-75
2023/09/15 10:26:25;;;;;;;;;;;20.20;99.90;;;;;;5081860;28;19959;-74
2023/09/15 10:28:52;;;;;;;;;;;20.30;99.90;;;;;;5088588;28;19962;-74
2023/09/15 10:31:19;;;;;;;;;;;20.40;99.90;;;;;;5084992;28;19920;-74
2023/09/15 10:33:47;;;;;;;;;;;20.50;99.90;;;;;;5084665;28;19920;-75
2023/09/15 10:36:15;;;;;;;;;;;20.60;99.90;;;;;;5084557;28;19924;-74
2023/09/15 10:38:44;;;;;;;;;;;20.80;99.90;;;;;;5084488;28;19984;-73
2023/09/15 10:41:23;;;;;;;;;;;20.90;99.90;;;;;;5080608;28;19920;-74
2023/09/15 10:43:50;;;;;;;;;;;20.90;99.90;;;;;;5083926;28;19975;-73
2023/09/15 10:46:17;;;;;;;;;;;21.10;99.90;;;;;;5083715;28;19929;-72
2023/09/15 10:48:46;;;;;;;;;;;21.20;99.90;;;;;;5084132;28;19956;-72
2023/09/15 10:51:15;;;;;;;;;;;21.30;99.90;;;;;;5084170;28;19924;-73
2023/09/15 10:53:42;;;;;;;;;;;21.40;99.90;;;;;;5083906;28;20263;-73
2023/09/15 10:56:09;;;;;;;;;;;21.30;99.90;;;;;;5082228;28;19932;-73
2023/09/15 10:58:37;;;;;;;;;;;21.40;99.90;;;;;;5092991;28;19979;-73
2023/09/15 11:01:04;;;;;;;;;;;21.50;99.90;;;;;;5094742;28;19939;-72
2023/09/15 11:03:31;;;;;;;;;;;21.60;99.90;;;;;;5085666;28;19952;-73
2023/09/15 11:05:59;;;;;;;;;;;21.80;99.90;;;;;;5083958;28;19983;-73
2023/09/15 11:08:26;;;;;;;;;;;21.80;99.90;;;;;;5083847;28;19984;-73
2023/09/15 11:10:58;;;;;;;;;;;21.80;99.90;;;;;;5082643;28;20387;-73
2023/09/15 11:13:24;;;;;;;;;;;21.90;99.90;;;;;;5092453;28;20316;-71
2023/09/15 11:15:52;;;;;;;;;;;22.00;99.90;;;;;;5083935;28;19921;-73
2023/09/15 11:18:19;;;;;;;;;;;22.10;99.90;;;;;;5083233;28;19983;-73
2023/09/15 11:20:46;;;;;;;;;;;22.20;99.90;;;;;;5083657;28;19928;-73
2023/09/15 11:23:13;;;;;;;;;;;22.30;99.90;;;;;;5083865;28;19928;-73
2023/09/15 11:25:39;;;;;;;;;;;22.40;99.90;;;;;;5077803;28;19935;-73
2023/09/15 11:28:10;;;;;;;;;;;22.60;99.90;;;;;;5082573;28;19920;-73
2023/09/15 11:30:37;;;;;;;;;;;22.80;99.90;;;;;;5076051;28;19921;-73
2023/09/15 11:33:07;;;;;;;;;;;23.00;99.90;;;;;;5083370;28;19936;-74
2023/09/15 11:35:35;;;;;;;;;;;23.20;99.90;;;;;;5084412;28;20398;-74
2023/09/15 11:38:02;;;;;;;;;;;23.40;99.90;;;;;;5083608;28;19955;-73
2023/09/15 11:40:29;;;;;;;;;;;23.50;99.90;;;;;;5081533;28;19924;-74
2023/09/15 11:42:56;;;;;;;;;;;23.60;99.90;;;;;;5082567;28;19942;-73
2023/09/15 11:45:25;;;;;;;;;;;23.60;99.90;;;;;;5084880;28;19970;-73
2023/09/15 11:47:53;;;;;;;;;;;23.70;99.90;;;;;;5085385;28;19928;-73
2023/09/15 11:50:21;;;;;;;;;;;23.80;99.90;;;;;;5083303;28;19920;-73
2023/09/15 11:52:48;;;;;;;;;;;23.90;99.90;;;;;;5083477;28;19984;-75
2023/09/15 11:55:18;;;;;;;;;;;24.00;99.90;;;;;;5082445;28;20206;-75
2023/09/15 11:57:45;;;;;;;;;;;24.10;99.90;;;;;;5083176;28;20194;-74
2023/09/15 12:00:13;;;;;;;;;;;24.20;99.90;;;;;;5082680;28;19927;-74
2023/09/15 12:02:40;;;;;;;;;;;24.20;99.90;;;;;;5081806;28;20190;-73
2023/09/15 12:05:06;;;;;;;;;;;24.30;99.90;;;;;;5077285;28;19979;-74
2023/09/15 12:07:35;;;;;;;;;;;24.40;99.90;;;;;;5076671;28;19963;-75
2023/09/15 12:10:03;;;;;;;;;;;24.60;99.90;;;;;;5082475;28;19936;-75
2023/09/15 12:12:29;;;;;;;;;;;24.80;99.90;;;;;;5083032;28;19920;-76
2023/09/15 12:15:00;;;;;;;;;;;25.00;99.90;;;;;;5087280;28;19920;-75
2023/09/15 12:17:27;;;;;;;;;;;25.10;99.90;;;;;;5086146;28;19963;-75
2023/09/15 12:19:59;;;;;;;;;;;25.10;99.90;;;;;;5085746;28;19935;-75
2023/09/15 12:22:30;;;;;;;;;;;25.20;99.90;;;;;;5091403;28;19920;-75
2023/09/15 12:24:58;;;;;;;;;;;25.40;99.90;;;;;;5086648;28;19983;-75
2023/09/15 12:27:25;;;;;;;;;;;25.60;99.90;;;;;;5086583;28;19975;-75
2023/09/15 12:29:52;;;;;;;;;;;25.80;99.90;;;;;;5087101;28;19943;-75
2023/09/15 12:32:25;;;;;;;;;;;25.90;99.90;;;;;;5097118;28;19964;-75
2023/09/15 12:34:52;;;;;;;;;;;26.00;99.90;;;;;;5090984;28;20455;-75
2023/09/15 12:37:19;;;;;;;;;;;26.20;99.90;;;;;;5084858;28;19999;-75
2023/09/15 12:39:52;;;;;;;;;;;26.30;99.90;;;;;;5084442;28;20241;-75
2023/09/15 12:42:20;;;;;;;;;;;26.30;99.90;;;;;;5084451;28;20214;-75
2023/09/15 12:44:46;;;;;;;;;;;26.30;99.90;;;;;;5089938;28;20178;-74
2023/09/15 12:47:14;;;;;;;;;;;26.40;99.90;;;;;;5085028;28;19928;-75
2023/09/15 12:49:40;;;;;;;;;;;26.40;99.90;;;;;;5085960;28;19935;-76
2023/09/15 12:52:07;;;;;;;;;;;26.60;99.90;;;;;;5093891;28;19978;-74
2023/09/15 12:54:34;;;;;;;;;;;26.70;99.90;;;;;;5090904;28;19979;-75
2023/09/15 12:57:01;;;;;;;;;;;26.90;99.90;;;;;;5086652;28;19927;-76
2023/09/15 12:59:32;;;;;;;;;;;27.00;99.90;;;;;;5091397;28;20280;-76
2023/09/15 13:01:58;;;;;;;;;;;26.80;99.90;;;;;;5087245;28;19927;-76
2023/09/15 13:04:26;;;;;;;;;;;26.70;99.90;;;;;;5087079;28;19962;-75
2023/09/15 13:06:54;;;;;;;;;;;26.70;99.90;;;;;;5086399;28;19967;-73
2023/09/15 13:09:23;;;;;;;;;;;26.80;99.90;;;;;;5086299;28;19963;-72
2023/09/15 13:11:49;;;;;;;;;;;27.00;99.90;;;;;;5086496;28;19920;-74
2023/09/15 13:14:23;;;;;;;;;;;27.30;99.90;;;;;;5085928;28;19988;-75
2023/09/15 13:16:51;;;;;;;;;;;27.40;99.90;;;;;;5086125;28;20229;-75
2023/09/15 13:19:18;;;;;;;;;;;27.50;99.90;;;;;;5086230;28;19963;-74
2023/09/15 13:21:45;;;;;;;;;;;27.60;99.90;;;;;;5096055;28;20236;-73
2023/09/15 13:24:11;;;;;;;;;;;27.70;99.90;;;;;;5085769;28;19921;-74
2023/09/15 13:26:38;;;;;;;;;;;27.80;99.90;;;;;;5084928;28;20177;-74
2023/09/15 13:29:05;;;;;;;;;;;28.00;99.90;;;;;;5086331;28;20230;-74
2023/09/15 13:31:32;;;;;;;;;;;28.00;99.90;;;;;;5086328;28;20265;-73
2023/09/15 13:34:00;;;;;;;;;;;27.70;99.90;;;;;;5084908;28;19921;-72
2023/09/15 13:36:27;;;;;;;;;;;27.40;99.90;;;;;;5094147;28;19978;-71
2023/09/15 13:38:53;;;;;;;;;;;27.40;99.90;;;;;;5090416;28;19920;-72
2023/09/15 13:41:20;;;;;;;;;;;27.50;99.90;;;;;;5085228;28;20121;-73
2023/09/15 13:43:47;;;;;;;;;;;27.50;99.90;;;;;;5085511;28;20022;-72
2023/09/15 13:46:13;;;;;;;;;;;27.40;99.90;;;;;;5085094;28;19927;-72
2023/09/15 13:48:40;;;;;;;;;;;27.40;99.90;;;;;;5085270;28;19988;-73
2023/09/15 13:51:08;;;;;;;;;;;27.30;99.90;;;;;;5085465;28;19987;-71
2023/09/15 13:53:36;;;;;;;;;;;27.10;99.90;;;;;;5085245;28;19956;-72
2023/09/15 13:56:04;;;;;;;;;;;27.00;99.90;;;;;;5084980;28;19980;-73
2023/09/15 13:58:30;;;;;;;;;;;27.10;99.90;;;;;;5085250;28;19920;-72
2023/09/15 14:00:58;;;;;;;;;;;27.30;99.90;;;;;;5085151;28;19970;-73
2023/09/15 14:03:24;;;;;;;;;;;27.50;99.90;;;;;;5085312;28;19983;-73
2023/09/15 14:05:51;;;;;;;;;;;27.60;99.90;;;;;;5084405;28;19983;-71
2023/09/15 14:08:19;;;;;;;;;;;27.60;99.90;;;;;;5085081;28;20114;-73
2023/09/15 14:10:47;;;;;;;;;;;27.60;99.90;;;;;;5084980;28;19920;-73
2023/09/15 14:13:15;;;;;;;;;;;27.50;99.90;;;;;;5090882;28;19921;-71
2023/09/15 14:15:42;;;;;;;;;;;27.40;99.90;;;;;;5098061;28;19962;-72
2023/09/15 14:18:09;;;;;;;;;;;27.30;99.90;;;;;;5079634;28;20234;-74